sensor_id;sensor_type;location;lat;lon;timestamp;pressure;altitude;pressure_sealevel;temperature;humidity
80568;BME280;69922;45.656;25.586;2023-11-18T00:00:10;94202.33;;;5.69;80.45
80568;BME280;69922;45.656;25.586;2023-11-18T00:01:32;94197.93;;;5.68;80.43
80568;BME280;69922;45.656;25.586;2023-11-18T00:02:36;94196.40;;;5.68;80.43
80568;BME280;69922;45.656;25.586;2023-11-18T00:03:40;94192.73;;;5.68;80.30
80568;BME280;69922;45.656;25.586;2023-11-18T00:04:44;94193.31;;;5.67;80.18
80568;BME280;69922;45.656;25.586;2023-11-18T00:05:47;94195.70;;;5.66;80.19
80568;BME280;69922;45.656;25.586;2023-11-18T00:06:51;94196.21;;;5.66;80.08
80568;BME280;69922;45.656;25.586;2023-11-18T00:07:55;94193.56;;;5.64;79.67
80568;BME280;69922;45.656;25.586;2023-11-18T00:08:59;94195.34;;;5.62;79.63
80568;BME280;69922;45.656;25.586;2023-11-18T00:10:03;94195.48;;;5.60;79.73
80568;BME280;69922;45.656;25.586;2023-11-18T00:11:07;94193.80;;;5.59;79.67
80568;BME280;69922;45.656;25.586;2023-11-18T00:12:12;94197.70;;;5.58;79.63
80568;BME280;69922;45.656;25.586;2023-11-18T00:13:15;94200.20;;;5.55;79.65
80568;BME280;69922;45.656;25.586;2023-11-18T00:14:19;94203.55;;;5.54;79.88
80568;BME280;69922;45.656;25.586;2023-11-18T00:15:24;94204.02;;;5.53;79.72
80568;BME280;69922;45.656;25.586;2023-11-18T00:16:27;94207.04;;;5.51;79.54
80568;BME280;69922;45.656;25.586;2023-11-18T00:17:33;94198.95;;;5.50;79.45
80568;BME280;69922;45.656;25.586;2023-11-18T00:18:37;94200.14;;;5.50;79.61
80568;BME280;69922;45.656;25.586;2023-11-18T00:19:41;94194.65;;;5.49;79.51
80568;BME280;69922;45.656;25.586;2023-11-18T00:20:45;94193.48;;;5.49;79.64
80568;BME280;69922;45.656;25.586;2023-11-18T00:21:49;94192.92;;;5.51;79.66
80568;BME280;69922;45.656;25.586;2023-11-18T00:22:53;94188.71;;;5.51;79.80
80568;BME280;69922;45.656;25.586;2023-11-18T00:23:57;94188.98;;;5.52;79.72
80568;BME280;69922;45.656;25.586;2023-11-18T00:25:00;94188.54;;;5.52;79.57
80568;BME280;69922;45.656;25.586;2023-11-18T00:26:06;94193.19;;;5.53;79.57
80568;BME280;69922;45.656;25.586;2023-11-18T00:27:10;94199.19;;;5.53;79.60
80568;BME280;69922;45.656;25.586;2023-11-18T00:28:14;94204.13;;;5.55;79.79
80568;BME280;69922;45.656;25.586;2023-11-18T00:29:17;94205.23;;;5.54;79.85
80568;BME280;69922;45.656;25.586;2023-11-18T00:30:20;94208.87;;;5.54;79.98
80568;BME280;69922;45.656;25.586;2023-11-18T00:31:24;94208.35;;;5.53;80.04
80568;BME280;69922;45.656;25.586;2023-11-18T00:32:28;94210.14;;;5.53;80.06
80568;BME280;69922;45.656;25.586;2023-11-18T00:33:32;94207.00;;;5.53;79.85
80568;BME280;69922;45.656;25.586;2023-11-18T00:34:36;94206.70;;;5.53;80.08
80568;BME280;69922;45.656;25.586;2023-11-18T00:35:39;94206.10;;;5.54;79.89
80568;BME280;69922;45.656;25.586;2023-11-18T00:36:43;94201.29;;;5.53;79.80
80568;BME280;69922;45.656;25.586;2023-11-18T00:37:46;94196.25;;;5.54;79.69
80568;BME280;69922;45.656;25.586;2023-11-18T00:38:51;94196.77;;;5.55;79.82
80568;BME280;69922;45.656;25.586;2023-11-18T00:39:55;94193.92;;;5.55;79.75
80568;BME280;69922;45.656;25.586;2023-11-18T00:40:58;94193.52;;;5.55;79.48
80568;BME280;69922;45.656;25.586;2023-11-18T00:42:02;94194.05;;;5.53;79.61
80568;BME280;69922;45.656;25.586;2023-11-18T00:43:06;94193.30;;;5.50;79.60
80568;BME280;69922;45.656;25.586;2023-11-18T00:44:12;94193.27;;;5.48;79.60
80568;BME280;69922;45.656;25.586;2023-11-18T00:45:16;94196.73;;;5.46;79.65
80568;BME280;69922;45.656;25.586;2023-11-18T00:46:22;94196.38;;;5.43;79.70
80568;BME280;69922;45.656;25.586;2023-11-18T00:47:25;94200.23;;;5.42;79.62
80568;BME280;69922;45.656;25.586;2023-11-18T00:48:29;94202.52;;;5.39;79.75
80568;BME280;69922;45.656;25.586;2023-11-18T00:49:33;94203.20;;;5.38;79.88
80568;BME280;69922;45.656;25.586;2023-11-18T00:50:38;94199.55;;;5.35;79.85
80568;BME280;69922;45.656;25.586;2023-11-18T00:51:41;94196.20;;;5.33;79.90
80568;BME280;69922;45.656;25.586;2023-11-18T00:52:45;94195.27;;;5.32;79.92
80568;BME280;69922;45.656;25.586;2023-11-18T00:53:53;94195.42;;;5.30;80.18
80568;BME280;69922;45.656;25.586;2023-11-18T00:54:57;94193.60;;;5.29;80.14
80568;BME280;69922;45.656;25.586;2023-11-18T00:56:01;94193.59;;;5.27;80.07
80568;BME280;69922;45.656;25.586;2023-11-18T00:57:06;94192.52;;;5.26;79.98
80568;BME280;69922;45.656;25.586;2023-11-18T00:58:11;94191.28;;;5.23;80.13
80568;BME280;69922;45.656;25.586;2023-11-18T00:59:14;94192.30;;;5.21;80.13
80568;BME280;69922;45.656;25.586;2023-11-18T01:00:20;94187.62;;;5.21;80.16
80568;BME280;69922;45.656;25.586;2023-11-18T01:01:26;94184.77;;;5.19;80.38
80568;BME280;69922;45.656;25.586;2023-11-18T01:02:30;94182.16;;;5.18;80.39
80568;BME280;69922;45.656;25.586;2023-11-18T01:03:34;94177.41;;;5.16;80.51
80568;BME280;69922;45.656;25.586;2023-11-18T01:04:37;94171.64;;;5.13;80.56
80568;BME280;69922;45.656;25.586;2023-11-18T01:05:42;94171.49;;;5.11;80.70
80568;BME280;69922;45.656;25.586;2023-11-18T01:06:46;94166.08;;;5.07;80.50
80568;BME280;69922;45.656;25.586;2023-11-18T01:07:50;94171.14;;;5.05;80.48
80568;BME280;69922;45.656;25.586;2023-11-18T01:08:53;94172.90;;;5.01;80.72
80568;BME280;69922;45.656;25.586;2023-11-18T01:09:57;94174.23;;;4.98;80.53
80568;BME280;69922;45.656;25.586;2023-11-18T01:11:01;94180.80;;;4.95;80.22
80568;BME280;69922;45.656;25.586;2023-11-18T01:12:07;94178.11;;;4.93;80.09
80568;BME280;69922;45.656;25.586;2023-11-18T01:13:13;94175.15;;;4.89;80.33
80568;BME280;69922;45.656;25.586;2023-11-18T01:14:16;94171.79;;;4.87;80.44
80568;BME280;69922;45.656;25.586;2023-11-18T01:15:20;94165.84;;;4.85;80.63
80568;BME280;69922;45.656;25.586;2023-11-18T01:16:24;94166.43;;;4.83;80.76
80568;BME280;69922;45.656;25.586;2023-11-18T01:17:28;94163.94;;;4.81;80.60
80568;BME280;69922;45.656;25.586;2023-11-18T01:18:32;94166.54;;;4.79;80.82
80568;BME280;69922;45.656;25.586;2023-11-18T01:19:36;94166.20;;;4.77;80.91
80568;BME280;69922;45.656;25.586;2023-11-18T01:20:40;94164.23;;;4.74;80.84
80568;BME280;69922;45.656;25.586;2023-11-18T01:21:44;94166.88;;;4.72;80.95
80568;BME280;69922;45.656;25.586;2023-11-18T01:22:47;94164.45;;;4.70;81.20
80568;BME280;69922;45.656;25.586;2023-11-18T01:23:52;94160.18;;;4.68;81.39
80568;BME280;69922;45.656;25.586;2023-11-18T01:24:55;94159.83;;;4.65;81.41
80568;BME280;69922;45.656;25.586;2023-11-18T01:26:01;94156.48;;;4.62;81.41
80568;BME280;69922;45.656;25.586;2023-11-18T01:27:05;94162.66;;;4.60;81.69
80568;BME280;69922;45.656;25.586;2023-11-18T01:28:13;94159.74;;;4.57;81.76
80568;BME280;69922;45.656;25.586;2023-11-18T01:29:18;94163.91;;;4.56;81.96
80568;BME280;69922;45.656;25.586;2023-11-18T01:30:22;94166.60;;;4.54;81.93
80568;BME280;69922;45.656;25.586;2023-11-18T01:31:27;94169.52;;;4.52;81.83
80568;BME280;69922;45.656;25.586;2023-11-18T01:32:37;94164.57;;;4.50;81.98
80568;BME280;69922;45.656;25.586;2023-11-18T01:33:43;94169.91;;;4.49;81.93
80568;BME280;69922;45.656;25.586;2023-11-18T01:34:48;94173.02;;;4.48;81.84
80568;BME280;69922;45.656;25.586;2023-11-18T01:35:54;94175.82;;;4.47;81.91
80568;BME280;69922;45.656;25.586;2023-11-18T01:36:58;94176.30;;;4.45;81.74
80568;BME280;69922;45.656;25.586;2023-11-18T01:38:02;94180.89;;;4.45;81.95
80568;BME280;69922;45.656;25.586;2023-11-18T01:39:06;94180.25;;;4.44;81.95
80568;BME280;69922;45.656;25.586;2023-11-18T01:40:12;94181.77;;;4.44;81.94
80568;BME280;69922;45.656;25.586;2023-11-18T01:41:16;94176.84;;;4.44;81.92
80568;BME280;69922;45.656;25.586;2023-11-18T01:42:20;94176.24;;;4.45;81.89
80568;BME280;69922;45.656;25.586;2023-11-18T01:43:23;94172.75;;;4.46;81.76
80568;BME280;69922;45.656;25.586;2023-11-18T01:44:27;94170.38;;;4.46;81.99
80568;BME280;69922;45.656;25.586;2023-11-18T01:45:34;94168.15;;;4.46;82.02
80568;BME280;69922;45.656;25.586;2023-11-18T01:46:38;94168.98;;;4.46;81.92
80568;BME280;69922;45.656;25.586;2023-11-18T01:47:42;94169.42;;;4.45;81.84
80568;BME280;69922;45.656;25.586;2023-11-18T01:48:46;94169.96;;;4.45;81.76
80568;BME280;69922;45.656;25.586;2023-11-18T01:49:49;94169.65;;;4.45;81.74
80568;BME280;69922;45.656;25.586;2023-11-18T01:50:53;94173.55;;;4.45;81.98
80568;BME280;69922;45.656;25.586;2023-11-18T01:51:59;94173.98;;;4.44;81.95
80568;BME280;69922;45.656;25.586;2023-11-18T01:53:05;94175.85;;;4.43;81.83
80568;BME280;69922;45.656;25.586;2023-11-18T01:54:10;94172.90;;;4.42;82.11
80568;BME280;69922;45.656;25.586;2023-11-18T01:55:18;94172.23;;;4.42;82.33
80568;BME280;69922;45.656;25.586;2023-11-18T01:56:21;94171.67;;;4.41;82.11
80568;BME280;69922;45.656;25.586;2023-11-18T01:57:29;94169.90;;;4.40;82.24
80568;BME280;69922;45.656;25.586;2023-11-18T01:58:34;94167.95;;;4.39;82.20
80568;BME280;69922;45.656;25.586;2023-11-18T01:59:39;94168.39;;;4.39;82.14
80568;BME280;69922;45.656;25.586;2023-11-18T02:00:43;94165.46;;;4.39;81.97
80568;BME280;69922;45.656;25.586;2023-11-18T02:01:51;94165.44;;;4.40;82.01
80568;BME280;69922;45.656;25.586;2023-11-18T02:02:56;94163.56;;;4.40;82.05
80568;BME280;69922;45.656;25.586;2023-11-18T02:04:00;94165.70;;;4.41;81.92
80568;BME280;69922;45.656;25.586;2023-11-18T02:05:05;94169.92;;;4.40;81.95
80568;BME280;69922;45.656;25.586;2023-11-18T02:06:09;94169.25;;;4.41;81.96
80568;BME280;69922;45.656;25.586;2023-11-18T02:07:14;94166.98;;;4.41;81.89
80568;BME280;69922;45.656;25.586;2023-11-18T02:08:18;94171.29;;;4.41;81.78
80568;BME280;69922;45.656;25.586;2023-11-18T02:09:22;94175.23;;;4.42;81.72
80568;BME280;69922;45.656;25.586;2023-11-18T02:10:37;94179.59;;;4.41;82.03
80568;BME280;69922;45.656;25.586;2023-11-18T02:11:51;94181.63;;;4.41;82.09
80568;BME280;69922;45.656;25.586;2023-11-18T02:13:04;94182.35;;;4.40;82.16
80568;BME280;69922;45.656;25.586;2023-11-18T02:14:13;94186.87;;;4.41;82.28
80568;BME280;69922;45.656;25.586;2023-11-18T02:15:18;94181.45;;;4.42;82.32
80568;BME280;69922;45.656;25.586;2023-11-18T02:16:23;94177.13;;;4.44;82.36
80568;BME280;69922;45.656;25.586;2023-11-18T02:17:28;94173.65;;;4.45;82.29
80568;BME280;69922;45.656;25.586;2023-11-18T02:18:32;94176.59;;;4.47;82.37
80568;BME280;69922;45.656;25.586;2023-11-18T02:19:39;94176.42;;;4.48;82.59
80568;BME280;69922;45.656;25.586;2023-11-18T02:20:44;94181.80;;;4.49;82.17
80568;BME280;69922;45.656;25.586;2023-11-18T02:21:49;94178.48;;;4.51;82.17
80568;BME280;69922;45.656;25.586;2023-11-18T02:22:54;94178.26;;;4.52;82.12
80568;BME280;69922;45.656;25.586;2023-11-18T02:23:58;94177.77;;;4.53;82.09
80568;BME280;69922;45.656;25.586;2023-11-18T02:25:03;94186.24;;;4.56;81.99
80568;BME280;69922;45.656;25.586;2023-11-18T02:26:10;94180.96;;;4.57;82.00
80568;BME280;69922;45.656;25.586;2023-11-18T02:27:14;94182.65;;;4.58;82.10
80568;BME280;69922;45.656;25.586;2023-11-18T02:28:18;94183.43;;;4.59;81.93
80568;BME280;69922;45.656;25.586;2023-11-18T02:29:21;94188.21;;;4.61;81.89
80568;BME280;69922;45.656;25.586;2023-11-18T02:30:25;94185.19;;;4.63;82.10
80568;BME280;69922;45.656;25.586;2023-11-18T02:31:34;94184.64;;;4.66;82.02
80568;BME280;69922;45.656;25.586;2023-11-18T02:32:45;94186.46;;;4.68;81.91
80568;BME280;69922;45.656;25.586;2023-11-18T02:33:57;94183.01;;;4.70;81.56
80568;BME280;69922;45.656;25.586;2023-11-18T02:35:08;94184.42;;;4.71;81.44
80568;BME280;69922;45.656;25.586;2023-11-18T02:36:16;94183.27;;;4.72;81.46
80568;BME280;69922;45.656;25.586;2023-11-18T02:37:24;94182.63;;;4.73;81.33
80568;BME280;69922;45.656;25.586;2023-11-18T02:38:34;94185.60;;;4.74;81.47
80568;BME280;69922;45.656;25.586;2023-11-18T02:39:45;94183.53;;;4.74;81.36
80568;BME280;69922;45.656;25.586;2023-11-18T02:40:53;94180.82;;;4.74;81.37
80568;BME280;69922;45.656;25.586;2023-11-18T02:42:02;94180.72;;;4.74;81.43
80568;BME280;69922;45.656;25.586;2023-11-18T02:43:07;94179.52;;;4.73;81.32
80568;BME280;69922;45.656;25.586;2023-11-18T02:44:14;94182.06;;;4.73;81.36
80568;BME280;69922;45.656;25.586;2023-11-18T02:45:20;94181.23;;;4.71;81.35
80568;BME280;69922;45.656;25.586;2023-11-18T02:46:25;94181.23;;;4.70;81.40
80568;BME280;69922;45.656;25.586;2023-11-18T02:47:31;94180.45;;;4.68;81.26
80568;BME280;69922;45.656;25.586;2023-11-18T02:48:34;94178.20;;;4.68;81.31
80568;BME280;69922;45.656;25.586;2023-11-18T02:49:41;94179.25;;;4.69;81.42
80568;BME280;69922;45.656;25.586;2023-11-18T02:50:44;94182.57;;;4.70;81.15
80568;BME280;69922;45.656;25.586;2023-11-18T02:51:48;94182.08;;;4.72;81.19
80568;BME280;69922;45.656;25.586;2023-11-18T02:52:52;94180.23;;;4.73;81.11
80568;BME280;69922;45.656;25.586;2023-11-18T02:53:55;94178.77;;;4.73;80.95
80568;BME280;69922;45.656;25.586;2023-11-18T02:54:59;94179.04;;;4.74;81.10
80568;BME280;69922;45.656;25.586;2023-11-18T02:56:04;94174.64;;;4.76;80.99
80568;BME280;69922;45.656;25.586;2023-11-18T02:57:08;94169.55;;;4.77;80.89
80568;BME280;69922;45.656;25.586;2023-11-18T02:58:12;94168.80;;;4.79;80.71
80568;BME280;69922;45.656;25.586;2023-11-18T02:59:15;94168.20;;;4.81;81.08
80568;BME280;69922;45.656;25.586;2023-11-18T03:00:21;94167.15;;;4.84;80.48
80568;BME280;69922;45.656;25.586;2023-11-18T03:01:27;94164.55;;;4.84;80.51
80568;BME280;69922;45.656;25.586;2023-11-18T03:02:31;94163.25;;;4.84;80.53
80568;BME280;69922;45.656;25.586;2023-11-18T03:03:35;94165.63;;;4.84;80.32
80568;BME280;69922;45.656;25.586;2023-11-18T03:04:40;94164.81;;;4.84;80.26
80568;BME280;69922;45.656;25.586;2023-11-18T03:05:47;94163.13;;;4.83;80.01
80568;BME280;69922;45.656;25.586;2023-11-18T03:06:53;94163.66;;;4.83;80.10
80568;BME280;69922;45.656;25.586;2023-11-18T03:07:57;94168.27;;;4.83;80.17
80568;BME280;69922;45.656;25.586;2023-11-18T03:09:01;94167.28;;;4.83;80.20
80568;BME280;69922;45.656;25.586;2023-11-18T03:10:08;94168.21;;;4.85;80.23
80568;BME280;69922;45.656;25.586;2023-11-18T03:11:15;94168.89;;;4.86;80.13
80568;BME280;69922;45.656;25.586;2023-11-18T03:12:19;94170.52;;;4.86;80.16
80568;BME280;69922;45.656;25.586;2023-11-18T03:13:23;94171.47;;;4.85;80.12
80568;BME280;69922;45.656;25.586;2023-11-18T03:14:26;94173.64;;;4.84;80.01
80568;BME280;69922;45.656;25.586;2023-11-18T03:15:31;94178.86;;;4.83;80.01
80568;BME280;69922;45.656;25.586;2023-11-18T03:16:36;94181.47;;;4.83;79.99
80568;BME280;69922;45.656;25.586;2023-11-18T03:17:39;94185.31;;;4.82;79.92
80568;BME280;69922;45.656;25.586;2023-11-18T03:18:43;94187.71;;;4.82;80.08
80568;BME280;69922;45.656;25.586;2023-11-18T03:19:47;94191.05;;;4.82;80.13
80568;BME280;69922;45.656;25.586;2023-11-18T03:20:51;94195.02;;;4.81;80.23
80568;BME280;69922;45.656;25.586;2023-11-18T03:21:55;94197.22;;;4.82;80.19
80568;BME280;69922;45.656;25.586;2023-11-18T03:23:00;94199.86;;;4.82;80.50
80568;BME280;69922;45.656;25.586;2023-11-18T03:24:07;94199.08;;;4.84;80.33
80568;BME280;69922;45.656;25.586;2023-11-18T03:25:13;94201.50;;;4.84;80.22
80568;BME280;69922;45.656;25.586;2023-11-18T03:26:16;94206.88;;;4.83;80.08
80568;BME280;69922;45.656;25.586;2023-11-18T03:27:20;94202.25;;;4.82;80.11
80568;BME280;69922;45.656;25.586;2023-11-18T03:28:23;94201.75;;;4.81;80.41
80568;BME280;69922;45.656;25.586;2023-11-18T03:29:27;94200.20;;;4.80;80.43
80568;BME280;69922;45.656;25.586;2023-11-18T03:30:31;94203.34;;;4.78;80.35
80568;BME280;69922;45.656;25.586;2023-11-18T03:31:35;94202.02;;;4.76;80.31
80568;BME280;69922;45.656;25.586;2023-11-18T03:32:40;94204.14;;;4.75;80.39
80568;BME280;69922;45.656;25.586;2023-11-18T03:33:44;94204.89;;;4.75;80.67
80568;BME280;69922;45.656;25.586;2023-11-18T03:34:48;94202.34;;;4.75;80.46
80568;BME280;69922;45.656;25.586;2023-11-18T03:35:52;94205.52;;;4.75;80.63
80568;BME280;69922;45.656;25.586;2023-11-18T03:36:55;94203.89;;;4.76;80.83
80568;BME280;69922;45.656;25.586;2023-11-18T03:38:00;94205.73;;;4.76;80.83
80568;BME280;69922;45.656;25.586;2023-11-18T03:39:04;94205.44;;;4.76;80.90
80568;BME280;69922;45.656;25.586;2023-11-18T03:40:12;94205.64;;;4.75;80.98
80568;BME280;69922;45.656;25.586;2023-11-18T03:41:17;94204.81;;;4.73;80.89
80568;BME280;69922;45.656;25.586;2023-11-18T03:42:21;94206.33;;;4.71;80.93
80568;BME280;69922;45.656;25.586;2023-11-18T03:43:25;94204.45;;;4.71;80.95
80568;BME280;69922;45.656;25.586;2023-11-18T03:44:29;94203.52;;;4.71;81.02
80568;BME280;69922;45.656;25.586;2023-11-18T03:45:33;94200.55;;;4.71;81.08
80568;BME280;69922;45.656;25.586;2023-11-18T03:46:36;94198.86;;;4.74;81.12
80568;BME280;69922;45.656;25.586;2023-11-18T03:47:40;94203.31;;;4.74;81.25
80568;BME280;69922;45.656;25.586;2023-11-18T03:48:45;94206.16;;;4.76;81.27
80568;BME280;69922;45.656;25.586;2023-11-18T03:49:49;94205.73;;;4.76;81.27
80568;BME280;69922;45.656;25.586;2023-11-18T03:50:53;94201.52;;;4.75;81.26
80568;BME280;69922;45.656;25.586;2023-11-18T03:51:57;94203.83;;;4.74;81.71
80568;BME280;69922;45.656;25.586;2023-11-18T03:53:01;94201.82;;;4.74;81.40
80568;BME280;69922;45.656;25.586;2023-11-18T03:54:07;94202.20;;;4.74;81.45
80568;BME280;69922;45.656;25.586;2023-11-18T03:55:13;94208.56;;;4.73;81.31
80568;BME280;69922;45.656;25.586;2023-11-18T03:56:18;94208.95;;;4.72;81.47
80568;BME280;69922;45.656;25.586;2023-11-18T03:57:22;94213.36;;;4.73;81.60
80568;BME280;69922;45.656;25.586;2023-11-18T03:58:25;94215.25;;;4.73;81.96
80568;BME280;69922;45.656;25.586;2023-11-18T03:59:29;94219.94;;;4.74;81.96
80568;BME280;69922;45.656;25.586;2023-11-18T04:00:33;94217.71;;;4.75;81.94
80568;BME280;69922;45.656;25.586;2023-11-18T04:01:36;94217.47;;;4.76;82.02
80568;BME280;69922;45.656;25.586;2023-11-18T04:02:41;94221.77;;;4.77;82.03
80568;BME280;69922;45.656;25.586;2023-11-18T04:03:45;94219.33;;;4.79;82.16
80568;BME280;69922;45.656;25.586;2023-11-18T04:04:49;94217.97;;;4.81;82.26
80568;BME280;69922;45.656;25.586;2023-11-18T04:05:53;94221.54;;;4.83;82.20
80568;BME280;69922;45.656;25.586;2023-11-18T04:06:57;94218.59;;;4.84;82.12
80568;BME280;69922;45.656;25.586;2023-11-18T04:08:00;94221.23;;;4.85;81.89
80568;BME280;69922;45.656;25.586;2023-11-18T04:09:04;94220.95;;;4.85;81.88
80568;BME280;69922;45.656;25.586;2023-11-18T04:10:09;94220.65;;;4.84;81.79
80568;BME280;69922;45.656;25.586;2023-11-18T04:11:14;94224.73;;;4.83;81.73
80568;BME280;69922;45.656;25.586;2023-11-18T04:12:17;94224.59;;;4.83;81.73
80568;BME280;69922;45.656;25.586;2023-11-18T04:13:21;94223.77;;;4.81;81.82
80568;BME280;69922;45.656;25.586;2023-11-18T04:14:25;94224.17;;;4.80;81.92
80568;BME280;69922;45.656;25.586;2023-11-18T04:15:29;94226.48;;;4.79;81.98
80568;BME280;69922;45.656;25.586;2023-11-18T04:16:33;94224.08;;;4.77;81.93
80568;BME280;69922;45.656;25.586;2023-11-18T04:17:38;94228.20;;;4.74;82.00
80568;BME280;69922;45.656;25.586;2023-11-18T04:18:42;94224.11;;;4.73;82.05
80568;BME280;69922;45.656;25.586;2023-11-18T04:19:46;94226.45;;;4.73;81.95
80568;BME280;69922;45.656;25.586;2023-11-18T04:20:50;94224.09;;;4.73;82.20
80568;BME280;69922;45.656;25.586;2023-11-18T04:21:54;94224.69;;;4.72;82.24
80568;BME280;69922;45.656;25.586;2023-11-18T04:22:58;94224.45;;;4.71;82.36
80568;BME280;69922;45.656;25.586;2023-11-18T04:24:02;94225.31;;;4.69;82.48
80568;BME280;69922;45.656;25.586;2023-11-18T04:25:08;94221.80;;;4.67;82.46
80568;BME280;69922;45.656;25.586;2023-11-18T04:26:13;94225.23;;;4.66;82.48
80568;BME280;69922;45.656;25.586;2023-11-18T04:27:17;94222.27;;;4.66;82.42
80568;BME280;69922;45.656;25.586;2023-11-18T04:28:20;94225.66;;;4.67;82.52
80568;BME280;69922;45.656;25.586;2023-11-18T04:29:23;94220.73;;;4.69;82.65
80568;BME280;69922;45.656;25.586;2023-11-18T04:30:27;94225.30;;;4.72;82.71
80568;BME280;69922;45.656;25.586;2023-11-18T04:31:30;94225.17;;;4.74;82.64
80568;BME280;69922;45.656;25.586;2023-11-18T04:32:34;94226.18;;;4.76;82.38
80568;BME280;69922;45.656;25.586;2023-11-18T04:33:38;94225.77;;;4.77;82.38
80568;BME280;69922;45.656;25.586;2023-11-18T04:34:44;94228.32;;;4.78;82.40
80568;BME280;69922;45.656;25.586;2023-11-18T04:35:48;94230.77;;;4.79;82.40
80568;BME280;69922;45.656;25.586;2023-11-18T04:36:51;94231.23;;;4.81;82.53
80568;BME280;69922;45.656;25.586;2023-11-18T04:37:55;94227.42;;;4.82;82.40
80568;BME280;69922;45.656;25.586;2023-11-18T04:38:58;94228.56;;;4.82;82.33
80568;BME280;69922;45.656;25.586;2023-11-18T04:40:03;94227.96;;;4.82;82.30
80568;BME280;69922;45.656;25.586;2023-11-18T04:41:07;94227.38;;;4.81;82.32
80568;BME280;69922;45.656;25.586;2023-11-18T04:42:11;94229.80;;;4.82;82.47
80568;BME280;69922;45.656;25.586;2023-11-18T04:43:15;94227.95;;;4.82;82.42
80568;BME280;69922;45.656;25.586;2023-11-18T04:44:18;94231.88;;;4.81;82.31
80568;BME280;69922;45.656;25.586;2023-11-18T04:45:22;94228.56;;;4.81;82.03
80568;BME280;69922;45.656;25.586;2023-11-18T04:46:26;94230.48;;;4.81;82.24
80568;BME280;69922;45.656;25.586;2023-11-18T04:47:29;94230.63;;;4.81;82.43
80568;BME280;69922;45.656;25.586;2023-11-18T04:48:33;94234.31;;;4.81;82.18
80568;BME280;69922;45.656;25.586;2023-11-18T04:49:41;94234.12;;;4.80;82.07
80568;BME280;69922;45.656;25.586;2023-11-18T04:50:46;94236.25;;;4.79;82.11
80568;BME280;69922;45.656;25.586;2023-11-18T04:51:50;94236.05;;;4.78;82.31
80568;BME280;69922;45.656;25.586;2023-11-18T04:52:54;94235.92;;;4.77;82.28
80568;BME280;69922;45.656;25.586;2023-11-18T04:53:58;94235.45;;;4.77;82.22
80568;BME280;69922;45.656;25.586;2023-11-18T04:55:01;94239.41;;;4.76;82.26
80568;BME280;69922;45.656;25.586;2023-11-18T04:56:08;94235.66;;;4.75;82.31
80568;BME280;69922;45.656;25.586;2023-11-18T04:57:14;94238.12;;;4.74;82.36
80568;BME280;69922;45.656;25.586;2023-11-18T04:58:18;94240.04;;;4.73;82.42
80568;BME280;69922;45.656;25.586;2023-11-18T04:59:22;94240.60;;;4.72;82.36
80568;BME280;69922;45.656;25.586;2023-11-18T05:00:25;94238.82;;;4.72;82.55
80568;BME280;69922;45.656;25.586;2023-11-18T05:01:30;94234.52;;;4.73;82.53
80568;BME280;69922;45.656;25.586;2023-11-18T05:02:33;94233.35;;;4.74;82.39
80568;BME280;69922;45.656;25.586;2023-11-18T05:03:38;94232.53;;;4.75;82.37
80568;BME280;69922;45.656;25.586;2023-11-18T05:04:42;94233.29;;;4.74;82.02
80568;BME280;69922;45.656;25.586;2023-11-18T05:05:46;94229.02;;;4.74;82.28
80568;BME280;69922;45.656;25.586;2023-11-18T05:06:49;94232.17;;;4.74;82.28
80568;BME280;69922;45.656;25.586;2023-11-18T05:07:54;94235.51;;;4.72;81.99
80568;BME280;69922;45.656;25.586;2023-11-18T05:08:58;94232.75;;;4.73;82.08
80568;BME280;69922;45.656;25.586;2023-11-18T05:10:02;94239.97;;;4.73;82.16
80568;BME280;69922;45.656;25.586;2023-11-18T05:11:07;94236.65;;;4.72;81.95
80568;BME280;69922;45.656;25.586;2023-11-18T05:12:11;94236.80;;;4.70;82.11
80568;BME280;69922;45.656;25.586;2023-11-18T05:13:14;94239.60;;;4.69;82.17
80568;BME280;69922;45.656;25.586;2023-11-18T05:14:19;94240.27;;;4.69;82.43
80568;BME280;69922;45.656;25.586;2023-11-18T05:15:23;94243.49;;;4.68;82.22
80568;BME280;69922;45.656;25.586;2023-11-18T05:16:30;94244.91;;;4.69;81.99
80568;BME280;69922;45.656;25.586;2023-11-18T05:17:34;94247.23;;;4.67;81.91
80568;BME280;69922;45.656;25.586;2023-11-18T05:18:39;94250.95;;;4.66;82.12
80568;BME280;69922;45.656;25.586;2023-11-18T05:19:43;94248.94;;;4.63;81.92
80568;BME280;69922;45.656;25.586;2023-11-18T05:20:47;94256.61;;;4.62;81.94
80568;BME280;69922;45.656;25.586;2023-11-18T05:21:51;94253.85;;;4.59;82.04
80568;BME280;69922;45.656;25.586;2023-11-18T05:22:55;94256.42;;;4.59;82.01
80568;BME280;69922;45.656;25.586;2023-11-18T05:23:58;94259.67;;;4.60;82.10
80568;BME280;69922;45.656;25.586;2023-11-18T05:25:02;94257.83;;;4.60;82.20
80568;BME280;69922;45.656;25.586;2023-11-18T05:26:06;94258.85;;;4.60;82.26
80568;BME280;69922;45.656;25.586;2023-11-18T05:27:10;94264.31;;;4.61;82.03
80568;BME280;69922;45.656;25.586;2023-11-18T05:28:16;94265.95;;;4.62;82.02
80568;BME280;69922;45.656;25.586;2023-11-18T05:29:20;94264.80;;;4.62;81.97
80568;BME280;69922;45.656;25.586;2023-11-18T05:30:24;94265.16;;;4.63;82.31
80568;BME280;69922;45.656;25.586;2023-11-18T05:31:27;94268.20;;;4.65;82.32
80568;BME280;69922;45.656;25.586;2023-11-18T05:32:32;94268.56;;;4.66;82.33
80568;BME280;69922;45.656;25.586;2023-11-18T05:33:37;94271.13;;;4.68;82.37
80568;BME280;69922;45.656;25.586;2023-11-18T05:34:41;94272.42;;;4.67;82.15
80568;BME280;69922;45.656;25.586;2023-11-18T05:35:45;94276.59;;;4.67;82.50
80568;BME280;69922;45.656;25.586;2023-11-18T05:36:53;94274.36;;;4.67;82.48
80568;BME280;69922;45.656;25.586;2023-11-18T05:37:58;94275.88;;;4.67;82.42
80568;BME280;69922;45.656;25.586;2023-11-18T05:39:02;94276.11;;;4.67;82.51
80568;BME280;69922;45.656;25.586;2023-11-18T05:40:09;94279.67;;;4.67;82.55
80568;BME280;69922;45.656;25.586;2023-11-18T05:41:14;94281.60;;;4.66;82.55
80568;BME280;69922;45.656;25.586;2023-11-18T05:42:26;94281.30;;;4.64;82.55